Upper Hill, Maryland
Current Conditions -  °F | °C
As of 9:54 AM on Thursday 30 Oct 2014 (Local Time) from KWAL Reporting Station
Clear Clear  
Wind Chill: 57°   Ceiling: Unl
Heat Index: 57°   Visibility: 10mi
Dew Point: 52°   Wind: 9mph
Humidity: 83%   Direction: 350°N
Pressure: 30.04"   Gusts: NA
Location:  38.1037°N, 75.7918°W
Report Text: KWAL 301354Z 35008KT 10SM CLR 14/11 A3004 RMK AO2 SLP168 T01390111
Loading
Personal Weather Stations






























Interactive Weather Map
Tropical Storm Tracking
New forecast layout! Learn more

10-Day Weather Forecast

Advertisements
Track Severe Weather on mobile